Time;durP1;ratioP1;P1;durP2;ratioP2;P2;SDS_P1;SDS_P2;PMS_P1;PMS_P2;Temp;Humidity;BMP_temperature;BMP_pressure;BME280_temperature;BME280_humidity;BME280_pressure;Samples;Min_cycle;Max_cycle;Signal;HPM_P1;HPM_P2
2023/11/14 00:01:24;;;;;;;27.65;3.63;;;9.60;99.90;;;;;;5098134;28;20026;-91
2023/11/14 00:03:50;;;;;;;23.05;2.95;;;9.60;99.90;;;;;;5096427;28;20039;-92
2023/11/14 00:06:16;;;;;;;30.55;5.63;;;9.60;99.90;;;;;;5096309;28;20028;-91
2023/11/14 00:08:42;;;;;;;25.73;4.10;;;9.60;99.90;;;;;;5095156;28;20023;-92
2023/11/14 00:11:10;;;;;;;29.38;3.70;;;9.60;99.90;;;;;;5095805;28;20019;-91
2023/11/14 00:13:36;;;;;;;33.40;5.30;;;9.60;99.90;;;;;;5095702;28;20032;-91
2023/11/14 00:16:02;;;;;;;43.13;7.45;;;9.60;99.90;;;;;;5114118;28;20038;-92
2023/11/14 00:18:28;;;;;;;29.63;3.58;;;9.60;99.90;;;;;;5095596;28;20598;-91
2023/11/14 00:20:56;;;;;;;27.02;4.57;;;9.70;99.90;;;;;;5099199;28;20054;-92
2023/11/14 00:23:22;;;;;;;25.50;4.68;;;9.70;99.90;;;;;;5099993;28;20491;-93
2023/11/14 00:25:48;;;;;;;38.58;6.15;;;9.70;99.90;;;;;;5099708;28;20020;-92
2023/11/14 00:28:13;;;;;;;26.48;5.40;;;9.70;99.90;;;;;;5098493;28;20023;-92
2023/11/14 00:30:40;;;;;;;37.53;5.70;;;9.70;99.90;;;;;;5099907;28;20035;-92
2023/11/14 00:33:06;;;;;;;27.73;4.90;;;9.70;99.90;;;;;;5102010;28;20023;-91
2023/11/14 00:35:31;;;;;;;42.97;7.80;;;9.80;99.90;;;;;;5120533;28;20034;-92
2023/11/14 00:37:57;;;;;;;38.90;4.72;;;9.80;99.90;;;;;;5112759;28;20024;-92
2023/11/14 00:40:23;;;;;;;31.67;6.00;;;9.80;99.90;;;;;;5104742;28;20036;-91
2023/11/14 00:42:49;;;;;;;43.88;6.78;;;9.80;99.90;;;;;;5101684;28;20064;-92
2023/11/14 00:45:53;;;;;;;47.65;7.53;;;9.90;99.90;;;;;;5099606;28;20484;-92
2023/11/14 00:48:19;;;;;;;35.63;5.13;;;9.90;99.90;;;;;;5090410;28;20038;-92
2023/11/14 00:50:45;;;;;;;62.05;11.57;;;9.90;99.90;;;;;;5122850;27;20024;-91
2023/11/14 00:53:11;;;;;;;29.13;5.00;;;9.90;99.90;;;;;;5101034;28;20023;-92
2023/11/14 00:55:36;;;;;;;36.45;5.47;;;10.00;99.90;;;;;;5100149;28;20034;-92
2023/11/14 00:58:02;;;;;;;27.83;4.97;;;10.00;99.90;;;;;;5099487;28;20043;-92
2023/11/14 01:00:28;;;;;;;38.78;7.15;;;10.00;99.90;;;;;;5099137;28;20076;-91
2023/11/14 01:02:54;;;;;;;33.83;4.55;;;10.00;99.90;;;;;;5099009;28;20434;-92
2023/11/14 01:05:23;;;;;;;29.90;4.18;;;10.00;99.90;;;;;;5100774;27;20028;-91
2023/11/14 01:07:50;;;;;;;26.35;4.50;;;10.00;99.90;;;;;;5099092;28;20047;-91
2023/11/14 01:10:15;;;;;;;45.33;8.23;;;10.00;99.90;;;;;;5098758;28;20111;-92
2023/11/14 01:12:41;;;;;;;36.33;6.30;;;10.00;99.90;;;;;;5098478;28;20047;-93
2023/11/14 01:15:07;;;;;;;39.15;8.70;;;10.00;99.90;;;;;;5106889;27;20029;-92
2023/11/14 01:17:33;;;;;;;50.33;8.68;;;10.00;99.90;;;;;;5123018;27;20048;-92
2023/11/14 01:19:59;;;;;;;26.83;4.68;;;10.00;99.90;;;;;;5108702;27;20121;-92
2023/11/14 01:22:25;;;;;;;42.40;5.18;;;10.00;99.90;;;;;;5115113;27;20042;-91
2023/11/14 01:24:51;;;;;;;43.33;5.20;;;9.90;99.90;;;;;;5109521;27;20023;-92
2023/11/14 01:27:16;;;;;;;33.00;4.68;;;9.90;99.90;;;;;;5107659;27;20015;-92
2023/11/14 01:29:45;;;;;;;43.58;5.28;;;9.90;99.90;;;;;;5125485;27;20361;-92
2023/11/14 01:32:11;;;;;;;92.13;15.85;;;9.90;99.90;;;;;;5109183;27;20094;-92
2023/11/14 01:34:36;;;;;;;42.70;6.18;;;10.00;99.90;;;;;;5104467;28;20027;-92
2023/11/14 01:37:02;;;;;;;35.28;4.53;;;10.00;99.90;;;;;;5104974;28;20456;-93
2023/11/14 01:39:29;;;;;;;23.38;4.35;;;10.00;99.90;;;;;;5107016;28;20095;-92
2023/11/14 01:41:55;;;;;;;36.67;4.70;;;10.00;99.90;;;;;;5098673;28;20015;-92
2023/11/14 01:44:20;;;;;;;32.15;4.72;;;10.00;99.90;;;;;;5110829;27;20023;-92
2023/11/14 01:46:47;;;;;;;35.20;4.38;;;10.00;99.90;;;;;;5116443;27;20028;-92
2023/11/14 01:49:14;;;;;;;41.55;4.65;;;10.00;99.90;;;;;;5129005;28;20016;-93
2023/11/14 01:51:42;;;;;;;43.45;5.97;;;10.00;99.90;;;;;;5106403;28;20025;-92
2023/11/14 01:54:09;;;;;;;28.83;4.97;;;10.00;99.90;;;;;;5122129;27;20055;-91
2023/11/14 01:56:36;;;;;;;29.58;4.93;;;10.00;99.90;;;;;;5108002;27;20023;-91
2023/11/14 01:59:02;;;;;;;29.02;5.30;;;10.10;99.90;;;;;;5089877;28;20067;-91
2023/11/14 02:01:28;;;;;;;26.05;4.80;;;10.10;99.90;;;;;;5085958;28;20390;-92
2023/11/14 02:03:54;;;;;;;27.63;3.88;;;10.10;99.90;;;;;;5083484;28;20059;-92
2023/11/14 02:06:19;;;;;;;39.17;7.15;;;10.10;99.90;;;;;;5085714;28;20016;-93
2023/11/14 02:08:46;;;;;;;29.95;4.13;;;10.10;99.90;;;;;;5085616;28;20031;-92
2023/11/14 02:11:12;;;;;;;38.80;4.70;;;10.10;99.90;;;;;;5085648;28;20028;-92
2023/11/14 02:13:42;;;;;;;39.10;4.78;;;10.10;99.90;;;;;;5083899;28;20021;-92
2023/11/14 02:16:08;;;;;;;29.65;3.55;;;10.10;99.90;;;;;;5083156;28;20032;-91
2023/11/14 02:18:34;;;;;;;32.25;4.35;;;10.00;99.90;;;;;;5080187;28;20045;-92
2023/11/14 02:20:59;;;;;;;31.05;3.75;;;10.00;99.90;;;;;;5081540;28;20017;-92
2023/11/14 02:23:28;;;;;;;30.73;3.65;;;10.00;99.90;;;;;;5081900;28;20028;-91
2023/11/14 02:25:55;;;;;;;35.00;4.13;;;10.00;99.90;;;;;;5082043;28;20397;-91
2023/11/14 02:28:20;;;;;;;25.20;3.70;;;10.00;99.90;;;;;;5083907;28;20024;-94
2023/11/14 02:30:46;;;;;;;42.40;5.95;;;10.00;99.90;;;;;;5102811;28;20127;-92
2023/11/14 02:33:12;;;;;;;37.38;3.88;;;9.90;99.90;;;;;;5084354;28;20020;-92
2023/11/14 02:35:38;;;;;;;24.67;3.28;;;10.00;99.90;;;;;;5085705;28;20024;-92
2023/11/14 02:38:03;;;;;;;30.92;3.80;;;9.90;99.90;;;;;;5082519;28;20029;-93
2023/11/14 02:40:29;;;;;;;29.27;3.95;;;9.90;99.90;;;;;;5082256;28;20059;-92
2023/11/14 02:42:54;;;;;;;32.10;4.53;;;9.90;99.90;;;;;;5089393;28;20020;-92
2023/11/14 02:45:21;;;;;;;27.92;3.90;;;9.90;99.90;;;;;;5086431;28;20028;-91
2023/11/14 02:47:48;;;;;;;36.38;5.00;;;9.90;99.90;;;;;;5084165;28;20039;-93
2023/11/14 02:50:29;;;;;;;42.47;6.00;;;9.90;99.90;;;;;;5081558;28;20020;-92
2023/11/14 02:52:55;;;;;;;;;;;9.90;99.90;;;;;;5099143;28;20115;-92
2023/11/14 02:55:21;;;;;;;24.30;3.75;;;9.80;99.90;;;;;;5097985;28;19944;-93
2023/11/14 02:57:46;;;;;;;17.52;3.90;;;9.80;99.90;;;;;;5075671;28;20058;-92
2023/11/14 03:00:16;;;;;;;23.23;3.42;;;9.80;99.90;;;;;;5082898;28;20031;-92
2023/11/14 03:02:45;;;;;;;32.38;3.75;;;9.80;99.90;;;;;;5086459;28;20116;-93
2023/11/14 03:05:12;;;;;;;36.70;4.88;;;9.80;99.90;;;;;;5083662;28;20020;-92
2023/11/14 03:07:38;;;;;;;26.38;4.05;;;9.80;99.90;;;;;;5085011;28;20028;-92
2023/11/14 03:10:04;;;;;;;33.30;3.90;;;9.80;99.90;;;;;;5085120;28;20028;-93
2023/11/14 03:12:29;;;;;;;29.23;4.32;;;9.80;99.90;;;;;;5086487;28;20067;-91
2023/11/14 03:14:55;;;;;;;25.83;3.10;;;9.80;99.90;;;;;;5080705;28;20043;-92
2023/11/14 03:17:21;;;;;;;26.70;3.72;;;9.80;99.90;;;;;;5082755;28;20021;-91
2023/11/14 03:19:47;;;;;;;21.90;3.20;;;9.70;99.90;;;;;;5082046;28;20036;-91
2023/11/14 03:22:14;;;;;;;24.08;2.70;;;9.70;99.90;;;;;;5082204;28;20100;-92
2023/11/14 03:24:40;;;;;;;39.30;4.63;;;9.70;99.90;;;;;;5084561;28;20029;-90
2023/11/14 03:27:06;;;;;;;22.90;3.25;;;9.70;99.90;;;;;;5081895;28;20016;-92
2023/11/14 03:29:32;;;;;;;22.45;3.70;;;9.70;99.90;;;;;;5081537;28;20017;-91
2023/11/14 03:31:59;;;;;;;30.55;3.85;;;9.70;99.90;;;;;;5081476;28;20025;-93
2023/11/14 03:34:25;;;;;;;28.92;3.10;;;9.70;99.90;;;;;;5081766;28;20020;-91
2023/11/14 03:36:54;;;;;;;27.10;4.63;;;9.70;99.90;;;;;;5081334;28;20028;-92
2023/11/14 03:39:23;;;;;;;29.17;4.45;;;9.70;99.90;;;;;;5084132;28;20063;-91
2023/11/14 03:41:49;;;;;;;20.77;3.65;;;9.70;99.90;;;;;;5081646;28;20035;-91
2023/11/14 03:44:15;;;;;;;17.42;2.70;;;9.70;99.90;;;;;;5084740;28;20017;-92
2023/11/14 03:46:42;;;;;;;20.52;3.17;;;9.70;99.90;;;;;;5085671;28;20058;-91
2023/11/14 03:49:07;;;;;;;20.55;3.95;;;9.70;99.90;;;;;;5083462;28;20024;-92
2023/11/14 03:51:33;;;;;;;17.42;2.97;;;9.70;99.90;;;;;;5081628;28;20470;-92
2023/11/14 03:53:59;;;;;;;17.67;2.47;;;9.70;99.90;;;;;;5083023;28;20530;-91
2023/11/14 03:56:25;;;;;;;21.40;3.33;;;9.60;99.90;;;;;;5083308;28;20024;-91
2023/11/14 03:58:50;;;;;;;35.45;4.40;;;9.60;99.90;;;;;;5084066;28;20501;-91
2023/11/14 04:01:16;;;;;;;21.55;2.78;;;9.60;99.90;;;;;;5084062;28;20072;-91
2023/11/14 04:03:43;;;;;;;25.08;2.70;;;9.60;99.90;;;;;;5084400;28;20021;-91
2023/11/14 04:06:10;;;;;;;15.45;2.90;;;9.60;99.90;;;;;;5081625;28;20020;-91
2023/11/14 04:08:37;;;;;;;19.52;2.42;;;9.60;99.90;;;;;;5083675;28;20587;-92
2023/11/14 04:11:03;;;;;;;24.48;3.00;;;9.60;99.90;;;;;;5083895;28;20114;-91
2023/11/14 04:13:28;;;;;;;22.83;2.65;;;9.60;99.90;;;;;;5080782;28;20046;-92
2023/11/14 04:15:54;;;;;;;16.30;2.53;;;9.60;99.90;;;;;;5084932;28;20035;-91
2023/11/14 04:18:20;;;;;;;19.75;3.20;;;9.60;99.90;;;;;;5082865;28;20036;-91
2023/11/14 04:20:46;;;;;;;23.13;3.88;;;9.60;99.90;;;;;;5083379;28;20028;-91
2023/11/14 04:23:12;;;;;;;20.05;2.80;;;9.60;99.90;;;;;;5084662;28;20039;-91
2023/11/14 04:25:37;;;;;;;19.95;2.15;;;9.60;99.90;;;;;;5082742;28;20072;-91
2023/11/14 04:28:03;;;;;;;18.02;2.88;;;9.50;99.90;;;;;;5082274;28;20025;-91
2023/11/14 04:30:29;;;;;;;20.88;3.15;;;9.50;99.90;;;;;;5076809;28;20028;-91
2023/11/14 04:32:55;;;;;;;19.00;3.22;;;9.50;99.90;;;;;;5078319;28;20029;-90
2023/11/14 04:35:20;;;;;;;37.53;3.80;;;9.60;99.90;;;;;;5082205;28;20024;-91
2023/11/14 04:37:50;;;;;;;20.63;2.38;;;9.50;99.90;;;;;;5083616;28;20036;-93
2023/11/14 04:40:16;;;;;;;19.90;2.70;;;9.50;99.90;;;;;;5075024;28;20032;-92
2023/11/14 04:42:41;;;;;;;22.10;2.55;;;9.50;99.90;;;;;;5080016;28;20074;-91
2023/11/14 04:45:07;;;;;;;19.95;3.50;;;9.50;99.90;;;;;;5083129;28;20021;-91
2023/11/14 04:47:33;;;;;;;29.00;3.28;;;9.50;99.90;;;;;;5080753;28;20047;-90
2023/11/14 04:49:59;;;;;;;24.13;4.18;;;9.50;99.90;;;;;;5087903;28;20016;-90
2023/11/14 04:52:25;;;;;;;14.45;2.00;;;9.50;99.90;;;;;;5086367;28;20557;-92
2023/11/14 04:54:50;;;;;;;13.80;2.38;;;9.50;99.90;;;;;;5080682;28;20115;-92
2023/11/14 04:57:16;;;;;;;15.82;2.65;;;9.60;99.90;;;;;;5083206;28;20025;-90
2023/11/14 04:59:41;;;;;;;22.23;2.63;;;9.50;99.90;;;;;;5101158;28;20055;-91
2023/11/14 05:02:07;;;;;;;24.08;2.83;;;9.60;99.90;;;;;;5099751;28;20016;-92
2023/11/14 05:04:34;;;;;;;21.73;2.53;;;9.60;99.90;;;;;;5100632;28;20055;-91
2023/11/14 05:07:00;;;;;;;19.88;2.65;;;9.60;99.90;;;;;;5109307;28;20142;-93
2023/11/14 05:09:25;;;;;;;19.15;2.38;;;9.60;99.90;;;;;;5102109;28;20024;-93
2023/11/14 05:11:51;;;;;;;18.45;2.90;;;9.50;99.90;;;;;;5106054;28;20126;-92
2023/11/14 05:14:16;;;;;;;22.52;2.83;;;9.60;99.90;;;;;;5106318;28;20023;-92
2023/11/14 05:16:43;;;;;;;23.17;2.90;;;9.60;99.90;;;;;;5105312;28;20031;-92
2023/11/14 05:19:09;;;;;;;29.20;3.17;;;9.60;99.90;;;;;;5102011;28;20122;-92
2023/11/14 05:21:37;;;;;;;15.30;2.90;;;9.60;99.90;;;;;;5112733;27;20023;-93
2023/11/14 05:24:03;;;;;;;23.45;2.78;;;9.70;99.90;;;;;;5102615;28;20488;-92
2023/11/14 05:26:28;;;;;;;16.52;2.60;;;9.70;99.90;;;;;;5109529;28;20114;-92
2023/11/14 05:28:54;;;;;;;19.50;2.47;;;9.70;99.90;;;;;;5104662;28;20028;-89
2023/11/14 05:31:20;;;;;;;15.52;2.30;;;9.70;99.90;;;;;;5113248;28;20019;-90
2023/11/14 05:33:46;;;;;;;22.25;2.58;;;9.70;99.90;;;;;;5114813;28;20055;-90
2023/11/14 05:36:12;;;;;;;19.83;2.72;;;9.70;99.90;;;;;;5110266;28;20382;-92
2023/11/14 05:38:37;;;;;;;22.30;3.17;;;9.70;99.90;;;;;;5106928;28;20047;-91
2023/11/14 05:41:04;;;;;;;12.95;2.38;;;9.70;99.90;;;;;;5098611;28;20021;-92
2023/11/14 05:43:30;;;;;;;14.00;2.63;;;9.70;99.90;;;;;;5096526;28;20030;-92
2023/11/14 05:45:56;;;;;;;15.65;2.05;;;9.70;99.90;;;;;;5100920;28;20016;-92
2023/11/14 05:48:23;;;;;;;10.00;1.90;;;9.60;99.90;;;;;;5109552;28;20016;-94
2023/11/14 05:50:49;;;;;;;28.52;4.15;;;9.60;99.90;;;;;;5106018;28;20028;-93
2023/11/14 05:53:18;;;;;;;16.55;2.55;;;9.60;99.90;;;;;;5112227;28;20022;-91
2023/11/14 05:55:44;;;;;;;16.40;2.60;;;9.60;99.90;;;;;;5100389;28;20028;-92
2023/11/14 05:58:10;;;;;;;16.40;2.22;;;9.60;99.90;;;;;;5107277;28;20044;-92
2023/11/14 06:00:36;;;;;;;23.08;2.95;;;9.60;99.90;;;;;;5108123;28;20064;-92
2023/11/14 06:03:02;;;;;;;28.50;2.55;;;9.60;99.90;;;;;;5105132;28;20020;-91
2023/11/14 06:05:28;;;;;;;23.08;2.60;;;9.60;99.90;;;;;;5095035;28;20024;-92
2023/11/14 06:07:54;;;;;;;30.27;3.78;;;9.60;99.90;;;;;;5109996;28;20020;-91
2023/11/14 06:10:19;;;;;;;31.63;4.40;;;9.60;99.90;;;;;;5105435;28;20032;-91
2023/11/14 06:12:45;;;;;;;22.77;2.80;;;9.50;99.90;;;;;;5104882;28;20027;-91
2023/11/14 06:15:11;;;;;;;28.77;4.32;;;9.50;99.90;;;;;;5099884;28;20016;-90
2023/11/14 06:17:36;;;;;;;21.30;2.85;;;9.50;99.90;;;;;;5106905;28;20454;-90
2023/11/14 06:20:07;;;;;;;23.23;3.08;;;9.50;99.90;;;;;;5105038;28;20035;-92
2023/11/14 06:22:33;;;;;;;;;;;9.50;99.90;;;;;;5097530;28;20031;-91
2023/11/14 06:25:00;;;;;;;17.50;2.58;;;9.50;99.90;;;;;;5113120;28;19995;-91
2023/11/14 06:27:25;;;;;;;24.13;3.40;;;9.40;99.90;;;;;;5108460;28;20447;-91
2023/11/14 06:29:51;;;;;;;22.48;3.35;;;9.40;99.90;;;;;;5109226;28;20107;-91
2023/11/14 06:32:17;;;;;;;20.88;3.30;;;9.50;99.90;;;;;;5099416;28;20057;-92
2023/11/14 06:34:42;;;;;;;23.83;3.00;;;9.50;99.90;;;;;;5100635;28;20464;-92
2023/11/14 06:37:08;;;;;;;25.35;3.55;;;9.50;99.90;;;;;;5105170;28;20391;-91
2023/11/14 06:39:34;;;;;;;24.00;3.08;;;9.50;99.90;;;;;;5100486;28;20046;-92
2023/11/14 06:42:00;;;;;;;21.15;3.20;;;9.50;99.90;;;;;;5108619;28;20054;-92
2023/11/14 06:44:25;;;;;;;21.55;2.40;;;9.50;99.90;;;;;;5104528;28;20027;-91
2023/11/14 06:46:51;;;;;;;18.10;2.90;;;9.50;99.90;;;;;;5103407;28;20024;-90
2023/11/14 06:49:17;;;;;;;25.90;3.38;;;9.50;99.90;;;;;;5108047;28;20040;-91
2023/11/14 06:51:43;;;;;;;25.85;3.47;;;9.50;99.90;;;;;;5108279;28;20075;-91
2023/11/14 06:54:08;;;;;;;16.92;2.95;;;9.40;99.90;;;;;;5103310;28;20714;-92
2023/11/14 06:56:34;;;;;;;20.88;3.20;;;9.40;99.90;;;;;;5105150;28;20036;-91
2023/11/14 06:59:00;;;;;;;17.23;3.47;;;9.50;99.90;;;;;;5104734;28;20043;-91
2023/11/14 07:01:26;;;;;;;14.45;2.55;;;9.40;99.90;;;;;;5101542;28;20016;-91
2023/11/14 07:03:51;;;;;;;16.70;2.38;;;9.40;99.90;;;;;;5104597;28;20433;-92
2023/11/14 07:06:19;;;;;;;13.02;1.90;;;9.40;99.90;;;;;;5099110;28;20024;-92
2023/11/14 07:08:45;;;;;;;20.58;2.08;;;9.40;99.90;;;;;;5101443;28;20012;-93
2023/11/14 07:11:11;;;;;;;13.27;1.67;;;9.40;99.90;;;;;;5105302;28;20031;-91
2023/11/14 07:13:38;;;;;;;6.43;1.60;;;9.40;99.90;;;;;;5096775;28;20400;-92
2023/11/14 07:16:04;;;;;;;13.45;1.50;;;9.40;99.90;;;;;;5101332;28;20026;-92
2023/11/14 07:18:29;;;;;;;12.32;1.55;;;9.40;99.90;;;;;;5101465;28;20035;-92
2023/11/14 07:20:56;;;;;;;9.43;1.27;;;9.40;99.90;;;;;;5093588;28;20028;-91
2023/11/14 07:23:22;;;;;;;9.70;2.10;;;9.40;99.90;;;;;;5113700;28;20023;-91
2023/11/14 07:25:48;;;;;;;5.35;0.90;;;9.40;99.90;;;;;;5113588;28;20023;-90
2023/11/14 07:28:13;;;;;;;8.07;1.33;;;9.40;99.90;;;;;;5113067;28;20393;-92
2023/11/14 07:30:39;;;;;;;9.55;1.50;;;9.40;99.90;;;;;;5113469;28;20162;-91
2023/11/14 07:33:05;;;;;;;9.38;1.58;;;9.40;99.90;;;;;;5102071;28;20048;-92
2023/11/14 07:35:31;;;;;;;7.07;1.35;;;9.40;99.90;;;;;;5081119;28;20509;-91
2023/11/14 07:38:00;;;;;;;6.97;1.45;;;9.40;99.90;;;;;;5078822;28;21791;-91
2023/11/14 07:40:26;;;;;;;12.32;1.90;;;9.40;99.90;;;;;;5082300;28;20027;-92
2023/11/14 07:42:51;;;;;;;9.18;1.90;;;9.40;99.90;;;;;;5081831;28;20028;-92
2023/11/14 07:45:20;;;;;;;8.93;1.30;;;9.40;99.90;;;;;;5085751;28;20024;-91
2023/11/14 07:47:45;;;;;;;9.48;1.98;;;9.40;99.90;;;;;;5082774;28;20036;-92
2023/11/14 07:50:11;;;;;;;8.00;1.23;;;9.40;99.90;;;;;;5083923;28;20025;-91
2023/11/14 07:52:37;;;;;;;7.97;1.38;;;9.40;99.90;;;;;;5084239;28;20024;-92
2023/11/14 07:55:03;;;;;;;8.07;1.30;;;9.40;99.90;;;;;;5082494;28;20056;-91
2023/11/14 07:57:30;;;;;;;11.93;5.25;;;9.40;99.90;;;;;;5081162;28;20031;-92
2023/11/14 07:59:56;;;;;;;4.43;1.73;;;9.40;99.90;;;;;;5082814;28;20047;-91
2023/11/14 08:02:22;;;;;;;6.50;1.00;;;9.40;99.90;;;;;;5096790;28;20024;-93
2023/11/14 08:04:51;;;;;;;7.60;1.75;;;9.40;99.90;;;;;;5097092;28;20036;-91
2023/11/14 08:07:16;;;;;;;5.20;1.67;;;9.40;99.90;;;;;;5096799;28;20032;-91
2023/11/14 08:09:42;;;;;;;8.73;1.40;;;9.40;99.90;;;;;;5097063;28;20024;-92
2023/11/14 08:12:08;;;;;;;5.30;0.93;;;9.40;99.90;;;;;;5096972;28;20066;-91
2023/11/14 08:14:33;;;;;;;7.00;1.10;;;9.40;99.90;;;;;;5094142;28;20444;-91
2023/11/14 08:16:59;;;;;;;6.38;1.00;;;9.40;99.90;;;;;;5102118;28;20040;-91
2023/11/14 08:19:25;;;;;;;6.03;1.10;;;9.40;99.90;;;;;;5101033;28;20040;-91
2023/11/14 08:21:50;;;;;;;9.15;1.00;;;9.40;99.90;;;;;;5098533;28;20028;-91
2023/11/14 08:24:16;;;;;;;7.70;1.52;;;9.40;99.90;;;;;;5105726;28;20055;-91
2023/11/14 08:26:41;;;;;;;9.38;1.42;;;9.40;99.90;;;;;;5090109;28;20020;-91
2023/11/14 08:29:07;;;;;;;8.63;1.38;;;9.40;99.90;;;;;;5087625;28;20028;-91
2023/11/14 08:31:34;;;;;;;10.30;1.38;;;9.40;99.90;;;;;;5091241;28;20269;-91
2023/11/14 08:34:00;;;;;;;13.63;3.25;;;9.40;99.90;;;;;;5087055;28;20020;-91
2023/11/14 08:36:25;;;;;;;8.93;2.08;;;9.50;99.90;;;;;;5092018;28;20020;-91
2023/11/14 08:38:51;;;;;;;15.57;3.13;;;9.50;99.90;;;;;;5076798;28;20081;-92
2023/11/14 08:41:17;;;;;;;13.82;2.00;;;9.50;99.90;;;;;;5080621;28;20619;-91
2023/11/14 08:43:44;;;;;;;7.78;1.63;;;9.50;99.90;;;;;;5096698;28;20093;-92
2023/11/14 08:46:10;;;;;;;8.43;1.42;;;9.50;99.90;;;;;;5079739;28;20114;-91
2023/11/14 08:48:37;;;;;;;11.68;2.05;;;9.50;99.90;;;;;;5079507;28;20081;-92
2023/11/14 08:51:03;;;;;;;12.18;2.55;;;9.60;99.90;;;;;;5096381;28;20524;-92
2023/11/14 08:53:29;;;;;;;13.07;1.73;;;9.60;99.90;;;;;;5099346;28;20032;-92
2023/11/14 08:55:55;;;;;;;11.88;2.72;;;9.60;99.90;;;;;;5100137;28;20026;-91
2023/11/14 08:58:21;;;;;;;6.78;1.92;;;9.70;99.90;;;;;;5088409;28;20051;-91
2023/11/14 09:00:47;;;;;;;6.43;1.25;;;9.70;99.90;;;;;;5080132;28;20482;-91
2023/11/14 09:03:12;;;;;;;7.43;1.42;;;9.70;99.90;;;;;;5076135;28;20033;-92
2023/11/14 09:05:38;;;;;;;12.95;2.40;;;9.70;99.90;;;;;;5075992;28;20028;-92
2023/11/14 09:08:04;;;;;;;6.03;1.27;;;9.80;99.90;;;;;;5075444;28;20089;-91
2023/11/14 09:10:30;;;;;;;9.48;0.98;;;9.80;99.90;;;;;;5075460;28;20055;-92
2023/11/14 09:12:56;;;;;;;7.38;0.88;;;9.80;99.90;;;;;;5075698;28;20032;-91
2023/11/14 09:15:22;;;;;;;3.90;0.80;;;9.90;99.90;;;;;;5076060;28;20024;-92
2023/11/14 09:17:48;;;;;;;5.13;1.00;;;9.90;99.90;;;;;;5075983;28;20093;-92
2023/11/14 09:20:16;;;;;;;4.63;1.10;;;10.00;99.90;;;;;;5075201;28;20021;-91
2023/11/14 09:22:42;;;;;;;5.35;0.93;;;10.00;99.90;;;;;;5075570;28;20058;-92
2023/11/14 09:25:08;;;;;;;5.25;0.85;;;10.00;99.90;;;;;;5075589;28;20115;-92
2023/11/14 09:27:34;;;;;;;6.88;0.85;;;10.00;99.90;;;;;;5062496;28;20025;-91
2023/11/14 09:29:59;;;;;;;4.78;1.30;;;10.10;99.90;;;;;;5063361;28;20055;-92
2023/11/14 09:32:25;;;;;;;9.55;1.10;;;10.10;99.90;;;;;;5065395;28;20075;-92
2023/11/14 09:34:52;;;;;;;5.95;0.95;;;10.10;99.90;;;;;;5083110;28;20028;-93
2023/11/14 09:37:18;;;;;;;5.85;0.70;;;10.10;99.90;;;;;;5073914;28;20025;-94
2023/11/14 09:39:44;;;;;;;5.95;1.05;;;10.10;99.90;;;;;;5084176;28;20517;-93
2023/11/14 09:42:09;;;;;;;4.30;0.65;;;10.10;99.90;;;;;;5080126;28;20024;-92
2023/11/14 09:44:36;;;;;;;4.18;1.67;;;10.10;99.90;;;;;;5094913;28;20028;-93
2023/11/14 09:47:03;;;;;;;4.88;1.15;;;10.10;99.90;;;;;;5098263;28;20017;-93
2023/11/14 09:49:29;;;;;;;4.78;0.70;;;10.20;99.90;;;;;;5091159;28;20031;-94
2023/11/14 09:51:55;;;;;;;7.30;0.95;;;10.20;99.90;;;;;;5091006;28;20020;-94
2023/11/14 09:54:21;;;;;;;5.65;0.90;;;10.20;99.90;;;;;;5094465;28;20025;-94
2023/11/14 09:56:47;;;;;;;4.28;1.08;;;10.10;99.90;;;;;;5099186;28;20025;-94
2023/11/14 09:59:14;;;;;;;5.32;1.20;;;10.20;99.90;;;;;;5112581;28;20047;-94
2023/11/14 10:01:40;;;;;;;4.88;0.77;;;10.20;99.90;;;;;;5122298;28;20028;-93
2023/11/14 10:04:07;;;;;;;5.15;1.02;;;10.20;99.90;;;;;;5110996;28;20028;-92
2023/11/14 10:06:42;;;;;;;4.30;1.27;;;10.20;99.90;;;;;;5107444;28;20027;-93
2023/11/14 10:09:16;;;;;;;8.48;0.95;;;10.20;99.90;;;;;;5105550;28;20027;-91
2023/11/14 10:11:45;;;;;;;7.65;1.40;;;10.30;99.90;;;;;;5111717;28;20027;-93
2023/11/14 10:14:11;;;;;;;6.05;1.70;;;10.30;99.90;;;;;;5108038;28;20031;-95
2023/11/14 10:16:37;;;;;;;7.43;2.10;;;10.30;99.90;;;;;;5110022;28;20028;-95
2023/11/14 10:19:14;;;;;;;9.70;1.77;;;10.40;99.90;;;;;;5123802;28;20053;-95
2023/11/14 10:21:40;;;;;;;8.05;1.38;;;10.40;99.90;;;;;;5113314;28;20095;-95
2023/11/14 10:24:16;;;;;;;14.43;2.03;;;10.40;99.90;;;;;;5118544;28;20032;-95
2023/11/14 10:26:53;;;;;;;8.05;1.45;;;10.40;99.90;;;;;;5119560;28;20024;-95
2023/11/14 10:29:21;;;;;;;12.93;3.08;;;10.50;99.90;;;;;;5114186;28;20091;-96
2023/11/14 10:31:47;;;;;;;14.32;2.13;;;10.50;99.90;;;;;;5113677;28;20028;-96
2023/11/14 10:35:07;;;;;;;12.00;1.92;;;10.60;99.90;;;;;;5113827;28;20023;-95
2023/11/14 10:37:33;;;;;;;14.57;2.35;;;10.60;99.90;;;;;;5105249;28;20032;-96
2023/11/14 10:40:06;;;;;;;14.43;2.85;;;10.60;99.90;;;;;;5112336;28;20031;-94
2023/11/14 10:42:32;;;;;;;16.88;2.60;;;10.70;99.90;;;;;;5104877;28;20029;-94
2023/11/14 10:45:10;;;;;;;13.50;2.58;;;10.70;99.90;;;;;;5105259;28;20020;-95
2023/11/14 10:47:40;;;;;;;11.18;2.28;;;10.70;99.90;;;;;;5106422;28;20035;-96
2023/11/14 10:50:24;;;;;;;14.73;2.45;;;10.80;99.90;;;;;;5113251;28;20068;-94
2023/11/14 10:52:53;;;;;;;16.95;2.05;;;10.80;99.90;;;;;;5092378;28;20038;-95
2023/11/14 10:55:22;;;;;;;16.90;1.95;;;10.80;99.90;;;;;;5116264;28;20020;-94
2023/11/14 10:57:51;;;;;;;20.48;2.30;;;10.80;99.90;;;;;;5122373;28;20047;-94
2023/11/14 11:00:18;;;;;;;17.95;2.33;;;10.90;99.90;;;;;;5120227;28;20040;-92
2023/11/14 11:02:45;;;;;;;22.05;2.90;;;10.90;99.90;;;;;;5113381;28;20019;-93
2023/11/14 11:05:13;;;;;;;30.63;3.80;;;10.90;99.90;;;;;;5105795;28;20134;-93
2023/11/14 11:07:39;;;;;;;21.77;2.70;;;10.90;99.90;;;;;;5105234;28;20048;-93
2023/11/14 11:10:06;;;;;;;18.63;3.25;;;10.90;99.90;;;;;;5104159;28;20058;-92
2023/11/14 11:12:34;;;;;;;19.92;3.70;;;11.00;99.90;;;;;;5098736;28;20176;-93
2023/11/14 11:15:02;;;;;;;28.90;3.08;;;11.00;99.90;;;;;;5090080;28;20120;-92
2023/11/14 11:17:45;;;;;;;25.50;2.85;;;11.00;99.90;;;;;;5092111;28;20019;-93
2023/11/14 11:20:25;;;;;;;21.52;3.75;;;11.00;99.90;;;;;;5107298;28;20068;-95
2023/11/14 11:23:10;;;;;;;21.98;3.63;;;11.00;99.90;;;;;;5107422;28;20112;-92
2023/11/14 11:25:37;;;;;;;27.45;3.42;;;11.00;99.90;;;;;;5098882;28;20024;-93
2023/11/14 11:28:27;;;;;;;23.20;3.72;;;11.00;99.90;;;;;;5096108;28;20143;-93
2023/11/14 11:31:05;;;;;;;19.30;2.90;;;11.00;99.90;;;;;;5103782;28;20034;-92
2023/11/14 11:33:42;;;;;;;17.38;2.83;;;11.00;99.90;;;;;;5100483;28;20061;-93
2023/11/14 11:36:26;;;;;;;23.63;3.47;;;11.10;99.90;;;;;;5098821;28;20028;-94
2023/11/14 11:38:58;;;;;;;31.00;6.15;;;11.10;99.90;;;;;;5103152;28;20047;-91
2023/11/14 11:41:27;;;;;;;17.65;2.70;;;11.10;99.90;;;;;;5102568;28;20020;-93
2023/11/14 11:44:12;;;;;;;23.00;3.28;;;11.10;99.90;;;;;;5103215;28;20024;-93
2023/11/14 11:46:42;;;;;;;23.80;5.15;;;11.00;99.90;;;;;;5096421;28;20027;-93
2023/11/14 11:49:11;;;;;;;19.93;2.57;;;11.10;99.90;;;;;;5102520;28;20073;-93
2023/11/14 11:51:43;;;;;;;25.80;3.63;;;11.10;99.90;;;;;;5103750;28;20360;-93
2023/11/14 11:54:27;;;;;;;23.13;3.80;;;11.00;99.90;;;;;;5104351;28;20389;-93
2023/11/14 11:57:05;;;;;;;29.05;5.63;;;11.10;99.90;;;;;;5099003;28;20012;-92
2023/11/14 11:59:51;;;;;;;21.73;2.72;;;11.10;99.90;;;;;;5079316;28;20465;-94
2023/11/14 12:02:24;;;;;;;21.20;3.65;;;11.10;99.90;;;;;;5032373;28;20047;-92
2023/11/14 12:04:54;;;;;;;28.23;4.15;;;11.10;99.90;;;;;;5071401;28;20093;-93
2023/11/14 12:07:20;;;;;;;20.48;3.63;;;11.10;99.90;;;;;;5073914;28;20500;-94
2023/11/14 12:09:46;;;;;;;26.08;5.60;;;11.10;99.90;;;;;;5074611;28;20032;-94
2023/11/14 12:12:14;;;;;;;19.05;4.25;;;11.10;99.90;;;;;;5074664;28;20062;-94
2023/11/14 12:14:41;;;;;;;23.25;3.67;;;11.20;99.90;;;;;;5072423;28;20054;-92
2023/11/14 12:17:07;;;;;;;27.45;3.85;;;11.20;99.90;;;;;;5073309;28;20024;-93
2023/11/14 12:19:33;;;;;;;18.63;3.63;;;11.20;99.90;;;;;;5076455;28;20051;-92
2023/11/14 12:22:01;;;;;;;21.45;3.83;;;11.30;99.90;;;;;;5075853;28;20017;-93
2023/11/14 12:24:26;;;;;;;18.80;3.83;;;11.30;99.90;;;;;;5086259;28;20028;-92
2023/11/14 12:26:52;;;;;;;20.88;3.40;;;11.40;99.90;;;;;;5080184;28;20027;-91
2023/11/14 12:29:19;;;;;;;20.48;3.72;;;11.40;99.90;;;;;;5098697;28;20101;-91
2023/11/14 12:31:52;;;;;;;17.20;2.03;;;11.50;99.90;;;;;;5098120;28;20046;-91
2023/11/14 12:34:29;;;;;;;24.30;3.53;;;11.60;99.90;;;;;;5099004;28;20027;-92
2023/11/14 12:37:09;;;;;;;18.25;3.00;;;11.70;99.90;;;;;;5097301;28;20884;-91
2023/11/14 12:39:35;;;;;;;15.05;3.05;;;11.80;99.90;;;;;;5089876;28;20109;-92
2023/11/14 12:42:01;;;;;;;19.85;3.38;;;11.80;99.90;;;;;;5110828;28;20040;-93
2023/11/14 12:44:27;;;;;;;16.92;2.88;;;11.80;99.90;;;;;;5106375;28;20092;-91
2023/11/14 12:46:56;;;;;;;24.60;3.95;;;11.90;99.90;;;;;;5076299;28;20541;-93